sensor_id;sensor_type;location;lat;lon;timestamp;temperature;humidity
18456;DHT22;9357;49.900;8.208;2023-04-24T00:00:05;11.90;99.90
18456;DHT22;9357;49.900;8.208;2023-04-24T00:01:40;11.80;99.90
18456;DHT22;9357;49.900;8.208;2023-04-24T00:03:12;11.80;99.90
18456;DHT22;9357;49.900;8.208;2023-04-24T00:04:45;11.80;99.90
18456;DHT22;9357;49.900;8.208;2023-04-24T00:06:18;11.80;99.90
18456;DHT22;9357;49.900;8.208;2023-04-24T00:07:51;11.80;99.90
18456;DHT22;9357;49.900;8.208;2023-04-24T00:09:24;11.80;99.90
18456;DHT22;9357;49.900;8.208;2023-04-24T00:10:57;11.80;99.90
18456;DHT22;9357;49.900;8.208;2023-04-24T00:12:30;11.80;99.90
18456;DHT22;9357;49.900;8.208;2023-04-24T00:14:03;11.80;99.90
18456;DHT22;9357;49.900;8.208;2023-04-24T00:15:37;11.80;99.90
18456;DHT22;9357;49.900;8.208;2023-04-24T00:17:10;11.80;99.90
18456;DHT22;9357;49.900;8.208;2023-04-24T00:18:42;11.80;99.90
18456;DHT22;9357;49.900;8.208;2023-04-24T00:20:16;11.80;99.90
18456;DHT22;9357;49.900;8.208;2023-04-24T00:21:50;11.80;99.90
18456;DHT22;9357;49.900;8.208;2023-04-24T00:23:23;11.80;99.90
18456;DHT22;9357;49.900;8.208;2023-04-24T00:24:56;11.80;99.90
18456;DHT22;9357;49.900;8.208;2023-04-24T00:26:29;11.80;99.90
18456;DHT22;9357;49.900;8.208;2023-04-24T00:28:02;11.80;99.90
18456;DHT22;9357;49.900;8.208;2023-04-24T00:29:34;11.70;99.90
18456;DHT22;9357;49.900;8.208;2023-04-24T00:31:09;11.70;99.90
18456;DHT22;9357;49.900;8.208;2023-04-24T00:32:41;11.80;99.90
18456;DHT22;9357;49.900;8.208;2023-04-24T00:34:14;11.70;99.90
18456;DHT22;9357;49.900;8.208;2023-04-24T00:35:47;11.70;99.90
18456;DHT22;9357;49.900;8.208;2023-04-24T00:37:19;11.80;99.90
18456;DHT22;9357;49.900;8.208;2023-04-24T00:38:52;11.70;99.90
18456;DHT22;9357;49.900;8.208;2023-04-24T00:40:24;11.70;99.90
18456;DHT22;9357;49.900;8.208;2023-04-24T00:41:57;11.70;99.90
18456;DHT22;9357;49.900;8.208;2023-04-24T00:43:30;11.70;99.90
18456;DHT22;9357;49.900;8.208;2023-04-24T00:45:04;11.70;99.90
18456;DHT22;9357;49.900;8.208;2023-04-24T00:46:38;11.80;99.90
18456;DHT22;9357;49.900;8.208;2023-04-24T00:48:11;11.80;99.90
18456;DHT22;9357;49.900;8.208;2023-04-24T00:49:44;11.80;99.90
18456;DHT22;9357;49.900;8.208;2023-04-24T00:51:16;11.80;99.90
18456;DHT22;9357;49.900;8.208;2023-04-24T00:52:49;11.80;99.90
18456;DHT22;9357;49.900;8.208;2023-04-24T00:54:22;11.90;99.90
18456;DHT22;9357;49.900;8.208;2023-04-24T00:55:55;11.80;99.90
18456;DHT22;9357;49.900;8.208;2023-04-24T00:57:27;11.80;99.90
18456;DHT22;9357;49.900;8.208;2023-04-24T00:59:00;11.80;99.90
18456;DHT22;9357;49.900;8.208;2023-04-24T01:00:33;11.80;99.90
18456;DHT22;9357;49.900;8.208;2023-04-24T01:02:08;11.80;99.90
18456;DHT22;9357;49.900;8.208;2023-04-24T01:03:42;11.80;99.90
18456;DHT22;9357;49.900;8.208;2023-04-24T01:05:15;11.70;99.90
18456;DHT22;9357;49.900;8.208;2023-04-24T01:06:48;11.70;99.90
18456;DHT22;9357;49.900;8.208;2023-04-24T01:08:24;11.80;99.90
18456;DHT22;9357;49.900;8.208;2023-04-24T01:09:58;11.70;99.90
18456;DHT22;9357;49.900;8.208;2023-04-24T01:11:31;11.70;99.90
18456;DHT22;9357;49.900;8.208;2023-04-24T01:13:03;11.70;99.90
18456;DHT22;9357;49.900;8.208;2023-04-24T01:14:36;11.70;99.90
18456;DHT22;9357;49.900;8.208;2023-04-24T01:16:09;11.70;99.90
18456;DHT22;9357;49.900;8.208;2023-04-24T01:17:43;11.80;99.90
18456;DHT22;9357;49.900;8.208;2023-04-24T01:19:18;11.80;99.90
18456;DHT22;9357;49.900;8.208;2023-04-24T01:20:53;11.80;99.90
18456;DHT22;9357;49.900;8.208;2023-04-24T01:22:27;11.80;99.90
18456;DHT22;9357;49.900;8.208;2023-04-24T01:24:00;11.70;99.90
18456;DHT22;9357;49.900;8.208;2023-04-24T01:25:33;11.80;99.90
18456;DHT22;9357;49.900;8.208;2023-04-24T01:27:06;11.80;99.90
18456;DHT22;9357;49.900;8.208;2023-04-24T01:28:38;11.80;99.90
18456;DHT22;9357;49.900;8.208;2023-04-24T01:30:12;11.80;99.90
18456;DHT22;9357;49.900;8.208;2023-04-24T01:31:45;11.80;99.90
18456;DHT22;9357;49.900;8.208;2023-04-24T01:33:17;11.80;99.90
18456;DHT22;9357;49.900;8.208;2023-04-24T01:34:50;11.80;99.90
18456;DHT22;9357;49.900;8.208;2023-04-24T01:36:22;11.80;99.90
18456;DHT22;9357;49.900;8.208;2023-04-24T01:37:59;11.80;99.90
18456;DHT22;9357;49.900;8.208;2023-04-24T01:39:32;11.80;99.90
18456;DHT22;9357;49.900;8.208;2023-04-24T01:41:05;11.80;99.90
18456;DHT22;9357;49.900;8.208;2023-04-24T01:42:37;11.80;99.90
18456;DHT22;9357;49.900;8.208;2023-04-24T01:44:10;11.80;99.90
18456;DHT22;9357;49.900;8.208;2023-04-24T01:45:42;11.80;99.90
18456;DHT22;9357;49.900;8.208;2023-04-24T01:47:15;11.80;99.90
18456;DHT22;9357;49.900;8.208;2023-04-24T01:48:48;11.80;99.90
18456;DHT22;9357;49.900;8.208;2023-04-24T01:50:21;11.80;99.90
18456;DHT22;9357;49.900;8.208;2023-04-24T01:51:54;11.80;99.90
18456;DHT22;9357;49.900;8.208;2023-04-24T01:53:28;11.80;99.90
18456;DHT22;9357;49.900;8.208;2023-04-24T01:55:00;11.80;99.90
18456;DHT22;9357;49.900;8.208;2023-04-24T01:56:34;11.80;99.90
18456;DHT22;9357;49.900;8.208;2023-04-24T01:58:06;11.70;99.90
18456;DHT22;9357;49.900;8.208;2023-04-24T01:59:39;11.70;99.90
18456;DHT22;9357;49.900;8.208;2023-04-24T02:01:15;11.80;99.90
18456;DHT22;9357;49.900;8.208;2023-04-24T02:02:50;11.70;99.90
18456;DHT22;9357;49.900;8.208;2023-04-24T02:04:23;11.70;99.90
18456;DHT22;9357;49.900;8.208;2023-04-24T02:05:56;11.70;99.90
18456;DHT22;9357;49.900;8.208;2023-04-24T02:07:28;11.70;99.90
18456;DHT22;9357;49.900;8.208;2023-04-24T02:09:03;11.70;99.90
18456;DHT22;9357;49.900;8.208;2023-04-24T02:10:35;11.70;99.90
18456;DHT22;9357;49.900;8.208;2023-04-24T02:12:08;11.70;99.90
18456;DHT22;9357;49.900;8.208;2023-04-24T02:13:41;11.70;99.90
18456;DHT22;9357;49.900;8.208;2023-04-24T02:15:14;11.60;99.90
18456;DHT22;9357;49.900;8.208;2023-04-24T02:16:46;11.60;99.90
18456;DHT22;9357;49.900;8.208;2023-04-24T02:18:18;11.60;99.90
18456;DHT22;9357;49.900;8.208;2023-04-24T02:19:52;11.60;99.90
18456;DHT22;9357;49.900;8.208;2023-04-24T02:21:24;11.60;99.90
18456;DHT22;9357;49.900;8.208;2023-04-24T02:22:56;11.60;99.90
18456;DHT22;9357;49.900;8.208;2023-04-24T02:24:30;11.60;99.90
18456;DHT22;9357;49.900;8.208;2023-04-24T02:26:03;11.60;99.90
18456;DHT22;9357;49.900;8.208;2023-04-24T02:27:35;11.60;99.90
18456;DHT22;9357;49.900;8.208;2023-04-24T02:29:08;11.60;99.90
18456;DHT22;9357;49.900;8.208;2023-04-24T02:30:41;11.60;99.90
18456;DHT22;9357;49.900;8.208;2023-04-24T02:32:13;11.50;99.90
18456;DHT22;9357;49.900;8.208;2023-04-24T02:33:47;11.50;99.90
18456;DHT22;9357;49.900;8.208;2023-04-24T02:35:20;11.60;99.90
18456;DHT22;9357;49.900;8.208;2023-04-24T02:36:53;11.50;99.90
18456;DHT22;9357;49.900;8.208;2023-04-24T02:38:26;11.50;99.90
18456;DHT22;9357;49.900;8.208;2023-04-24T02:40:00;11.50;99.90
18456;DHT22;9357;49.900;8.208;2023-04-24T02:41:33;11.50;99.90
18456;DHT22;9357;49.900;8.208;2023-04-24T02:43:06;11.50;99.90
18456;DHT22;9357;49.900;8.208;2023-04-24T02:44:38;11.50;99.90
18456;DHT22;9357;49.900;8.208;2023-04-24T02:46:12;11.50;99.90
18456;DHT22;9357;49.900;8.208;2023-04-24T02:47:45;11.50;99.90
18456;DHT22;9357;49.900;8.208;2023-04-24T02:49:17;11.50;99.90
18456;DHT22;9357;49.900;8.208;2023-04-24T02:50:49;11.50;99.90
18456;DHT22;9357;49.900;8.208;2023-04-24T02:52:22;11.50;99.90
18456;DHT22;9357;49.900;8.208;2023-04-24T02:53:55;11.50;99.90
18456;DHT22;9357;49.900;8.208;2023-04-24T02:55:29;11.50;99.90
18456;DHT22;9357;49.900;8.208;2023-04-24T02:57:02;11.50;99.90
18456;DHT22;9357;49.900;8.208;2023-04-24T02:58:34;11.60;99.90
18456;DHT22;9357;49.900;8.208;2023-04-24T03:00:09;11.60;99.90
18456;DHT22;9357;49.900;8.208;2023-04-24T03:01:42;11.60;99.90
18456;DHT22;9357;49.900;8.208;2023-04-24T03:03:15;11.60;99.90
18456;DHT22;9357;49.900;8.208;2023-04-24T03:04:47;11.60;99.90
18456;DHT22;9357;49.900;8.208;2023-04-24T03:06:20;11.60;99.90
18456;DHT22;9357;49.900;8.208;2023-04-24T03:07:52;11.50;99.90
18456;DHT22;9357;49.900;8.208;2023-04-24T03:09:25;11.50;99.90
18456;DHT22;9357;49.900;8.208;2023-04-24T03:10:58;11.50;99.90
18456;DHT22;9357;49.900;8.208;2023-04-24T03:12:31;11.50;99.90
18456;DHT22;9357;49.900;8.208;2023-04-24T03:14:03;11.50;99.90
18456;DHT22;9357;49.900;8.208;2023-04-24T03:15:36;11.50;99.90
18456;DHT22;9357;49.900;8.208;2023-04-24T03:17:09;11.50;99.90
18456;DHT22;9357;49.900;8.208;2023-04-24T03:18:42;11.50;99.90
18456;DHT22;9357;49.900;8.208;2023-04-24T03:20:13;11.50;99.90
18456;DHT22;9357;49.900;8.208;2023-04-24T03:21:46;11.40;99.90
18456;DHT22;9357;49.900;8.208;2023-04-24T03:23:18;11.40;99.90
18456;DHT22;9357;49.900;8.208;2023-04-24T03:24:51;11.40;99.90
18456;DHT22;9357;49.900;8.208;2023-04-24T03:26:25;11.40;99.90
18456;DHT22;9357;49.900;8.208;2023-04-24T03:27:58;11.30;99.90
18456;DHT22;9357;49.900;8.208;2023-04-24T03:29:30;11.40;99.90
18456;DHT22;9357;49.900;8.208;2023-04-24T03:31:02;11.40;99.90
18456;DHT22;9357;49.900;8.208;2023-04-24T03:32:35;11.40;99.90
18456;DHT22;9357;49.900;8.208;2023-04-24T03:34:08;11.40;99.90
18456;DHT22;9357;49.900;8.208;2023-04-24T03:35:41;11.30;99.90
18456;DHT22;9357;49.900;8.208;2023-04-24T03:37:14;11.30;99.90
18456;DHT22;9357;49.900;8.208;2023-04-24T03:38:47;11.30;99.90
18456;DHT22;9357;49.900;8.208;2023-04-24T03:40:19;11.30;99.90
18456;DHT22;9357;49.900;8.208;2023-04-24T03:41:53;11.20;99.90
18456;DHT22;9357;49.900;8.208;2023-04-24T03:43:26;11.20;99.90
18456;DHT22;9357;49.900;8.208;2023-04-24T03:44:59;11.20;99.90
18456;DHT22;9357;49.900;8.208;2023-04-24T03:46:32;11.20;99.90
18456;DHT22;9357;49.900;8.208;2023-04-24T03:48:05;11.20;99.90
18456;DHT22;9357;49.900;8.208;2023-04-24T03:49:37;11.10;99.90
18456;DHT22;9357;49.900;8.208;2023-04-24T03:51:09;11.10;99.90
18456;DHT22;9357;49.900;8.208;2023-04-24T03:52:42;11.00;99.90
18456;DHT22;9357;49.900;8.208;2023-04-24T03:54:15;11.00;99.90
18456;DHT22;9357;49.900;8.208;2023-04-24T03:55:47;10.90;99.90
18456;DHT22;9357;49.900;8.208;2023-04-24T03:57:21;10.90;99.90
18456;DHT22;9357;49.900;8.208;2023-04-24T03:58:54;10.90;99.90
18456;DHT22;9357;49.900;8.208;2023-04-24T04:00:26;10.80;99.90
18456;DHT22;9357;49.900;8.208;2023-04-24T04:01:59;10.80;99.90
18456;DHT22;9357;49.900;8.208;2023-04-24T04:03:31;10.70;99.90
18456;DHT22;9357;49.900;8.208;2023-04-24T04:05:05;10.70;99.90
18456;DHT22;9357;49.900;8.208;2023-04-24T04:06:38;10.70;99.90
18456;DHT22;9357;49.900;8.208;2023-04-24T04:08:10;10.60;99.90
18456;DHT22;9357;49.900;8.208;2023-04-24T04:09:43;10.50;99.90
18456;DHT22;9357;49.900;8.208;2023-04-24T04:11:15;10.50;99.90
18456;DHT22;9357;49.900;8.208;2023-04-24T04:12:49;10.40;99.90
18456;DHT22;9357;49.900;8.208;2023-04-24T04:14:22;10.40;99.90
18456;DHT22;9357;49.900;8.208;2023-04-24T04:15:55;10.40;99.90
18456;DHT22;9357;49.900;8.208;2023-04-24T04:17:28;10.30;99.90
18456;DHT22;9357;49.900;8.208;2023-04-24T04:19:01;10.30;99.90
18456;DHT22;9357;49.900;8.208;2023-04-24T04:20:34;10.30;99.90
18456;DHT22;9357;49.900;8.208;2023-04-24T04:22:07;10.20;99.90
18456;DHT22;9357;49.900;8.208;2023-04-24T04:23:39;10.20;99.90
18456;DHT22;9357;49.900;8.208;2023-04-24T04:25:13;10.10;99.90
18456;DHT22;9357;49.900;8.208;2023-04-24T04:26:46;10.10;99.90
18456;DHT22;9357;49.900;8.208;2023-04-24T04:28:19;10.10;99.90
18456;DHT22;9357;49.900;8.208;2023-04-24T04:29:52;10.00;99.90
18456;DHT22;9357;49.900;8.208;2023-04-24T04:31:25;10.00;99.90
18456;DHT22;9357;49.900;8.208;2023-04-24T04:32:57;10.00;99.90
18456;DHT22;9357;49.900;8.208;2023-04-24T04:34:30;9.90;99.90
18456;DHT22;9357;49.900;8.208;2023-04-24T04:36:03;9.90;99.90
18456;DHT22;9357;49.900;8.208;2023-04-24T04:37:36;9.90;99.90
18456;DHT22;9357;49.900;8.208;2023-04-24T04:39:09;9.90;99.90
18456;DHT22;9357;49.900;8.208;2023-04-24T04:40:41;9.90;99.90
18456;DHT22;9357;49.900;8.208;2023-04-24T04:42:14;9.90;99.90
18456;DHT22;9357;49.900;8.208;2023-04-24T04:43:48;9.90;99.90
18456;DHT22;9357;49.900;8.208;2023-04-24T04:45:20;9.80;99.90
18456;DHT22;9357;49.900;8.208;2023-04-24T04:46:53;9.80;99.90
18456;DHT22;9357;49.900;8.208;2023-04-24T04:48:27;9.80;99.90
18456;DHT22;9357;49.900;8.208;2023-04-24T04:50:03;9.80;99.90
18456;DHT22;9357;49.900;8.208;2023-04-24T04:51:36;9.80;99.90
18456;DHT22;9357;49.900;8.208;2023-04-24T04:53:11;9.80;99.90
18456;DHT22;9357;49.900;8.208;2023-04-24T04:54:44;9.80;99.90
18456;DHT22;9357;49.900;8.208;2023-04-24T04:56:17;9.80;99.90
18456;DHT22;9357;49.900;8.208;2023-04-24T04:57:51;9.80;99.90
18456;DHT22;9357;49.900;8.208;2023-04-24T04:59:25;9.90;99.90
18456;DHT22;9357;49.900;8.208;2023-04-24T05:00:57;9.90;99.90
18456;DHT22;9357;49.900;8.208;2023-04-24T05:02:30;9.90;99.90
18456;DHT22;9357;49.900;8.208;2023-04-24T05:04:03;9.90;99.90
18456;DHT22;9357;49.900;8.208;2023-04-24T05:05:36;9.90;99.90
18456;DHT22;9357;49.900;8.208;2023-04-24T05:07:12;9.90;99.90
18456;DHT22;9357;49.900;8.208;2023-04-24T05:08:44;9.90;99.90
18456;DHT22;9357;49.900;8.208;2023-04-24T05:10:16;9.90;99.90
18456;DHT22;9357;49.900;8.208;2023-04-24T05:11:49;9.90;99.90
18456;DHT22;9357;49.900;8.208;2023-04-24T05:13:22;9.90;99.90
18456;DHT22;9357;49.900;8.208;2023-04-24T05:15:11;9.80;99.90
18456;DHT22;9357;49.900;8.208;2023-04-24T05:16:44;9.80;99.90
18456;DHT22;9357;49.900;8.208;2023-04-24T05:18:17;9.80;99.90
18456;DHT22;9357;49.900;8.208;2023-04-24T05:19:50;9.80;99.90
18456;DHT22;9357;49.900;8.208;2023-04-24T05:21:23;9.80;99.90
18456;DHT22;9357;49.900;8.208;2023-04-24T05:22:56;9.80;99.90
18456;DHT22;9357;49.900;8.208;2023-04-24T05:24:29;9.80;99.90
18456;DHT22;9357;49.900;8.208;2023-04-24T05:26:02;9.80;99.90
18456;DHT22;9357;49.900;8.208;2023-04-24T05:27:38;9.80;99.90
18456;DHT22;9357;49.900;8.208;2023-04-24T05:29:11;9.80;99.90
18456;DHT22;9357;49.900;8.208;2023-04-24T05:30:45;9.80;99.90
18456;DHT22;9357;49.900;8.208;2023-04-24T05:32:18;9.80;99.90
18456;DHT22;9357;49.900;8.208;2023-04-24T05:33:51;9.80;99.90
18456;DHT22;9357;49.900;8.208;2023-04-24T05:35:24;9.80;99.90
18456;DHT22;9357;49.900;8.208;2023-04-24T05:36:57;9.80;99.90
18456;DHT22;9357;49.900;8.208;2023-04-24T05:38:29;9.80;99.90
18456;DHT22;9357;49.900;8.208;2023-04-24T05:40:03;9.80;99.90
18456;DHT22;9357;49.900;8.208;2023-04-24T05:41:36;9.80;99.90
18456;DHT22;9357;49.900;8.208;2023-04-24T05:43:09;9.80;99.90
18456;DHT22;9357;49.900;8.208;2023-04-24T05:44:42;9.80;99.90
18456;DHT22;9357;49.900;8.208;2023-04-24T05:46:16;9.80;99.90
18456;DHT22;9357;49.900;8.208;2023-04-24T05:47:49;9.80;99.90
18456;DHT22;9357;49.900;8.208;2023-04-24T05:49:23;9.70;99.90
18456;DHT22;9357;49.900;8.208;2023-04-24T05:50:56;9.80;99.90
18456;DHT22;9357;49.900;8.208;2023-04-24T05:52:29;9.80;99.90
18456;DHT22;9357;49.900;8.208;2023-04-24T05:54:02;9.80;99.90
18456;DHT22;9357;49.900;8.208;2023-04-24T05:55:35;9.80;99.90
18456;DHT22;9357;49.900;8.208;2023-04-24T05:57:07;9.90;99.90
18456;DHT22;9357;49.900;8.208;2023-04-24T05:58:40;9.90;99.90
18456;DHT22;9357;49.900;8.208;2023-04-24T06:00:13;10.00;99.90
18456;DHT22;9357;49.900;8.208;2023-04-24T06:01:48;10.00;99.90
18456;DHT22;9357;49.900;8.208;2023-04-24T06:03:21;10.00;99.90
18456;DHT22;9357;49.900;8.208;2023-04-24T06:04:54;10.00;99.90
18456;DHT22;9357;49.900;8.208;2023-04-24T06:06:29;10.10;99.90
18456;DHT22;9357;49.900;8.208;2023-04-24T06:08:04;10.10;99.90
18456;DHT22;9357;49.900;8.208;2023-04-24T06:09:37;10.10;99.90
18456;DHT22;9357;49.900;8.208;2023-04-24T06:11:09;10.20;99.90
18456;DHT22;9357;49.900;8.208;2023-04-24T06:12:42;10.20;99.90
18456;DHT22;9357;49.900;8.208;2023-04-24T06:14:15;10.30;99.90
18456;DHT22;9357;49.900;8.208;2023-04-24T06:15:47;10.30;99.90
18456;DHT22;9357;49.900;8.208;2023-04-24T06:17:21;10.30;99.90
18456;DHT22;9357;49.900;8.208;2023-04-24T06:18:54;10.40;99.90
18456;DHT22;9357;49.900;8.208;2023-04-24T06:20:27;10.40;99.90
18456;DHT22;9357;49.900;8.208;2023-04-24T06:22:00;10.50;99.90
18456;DHT22;9357;49.900;8.208;2023-04-24T06:23:33;10.50;99.90
18456;DHT22;9357;49.900;8.208;2023-04-24T06:25:06;10.50;99.90
18456;DHT22;9357;49.900;8.208;2023-04-24T06:26:39;10.60;99.90
18456;DHT22;9357;49.900;8.208;2023-04-24T06:28:12;10.60;99.90
18456;DHT22;9357;49.900;8.208;2023-04-24T06:29:45;10.70;99.90
18456;DHT22;9357;49.900;8.208;2023-04-24T06:31:16;10.70;99.90
18456;DHT22;9357;49.900;8.208;2023-04-24T06:32:51;10.80;99.90
18456;DHT22;9357;49.900;8.208;2023-04-24T06:34:23;10.80;99.90
18456;DHT22;9357;49.900;8.208;2023-04-24T06:35:56;10.90;99.90
18456;DHT22;9357;49.900;8.208;2023-04-24T06:37:29;10.90;99.90
18456;DHT22;9357;49.900;8.208;2023-04-24T06:39:02;10.90;99.90
18456;DHT22;9357;49.900;8.208;2023-04-24T06:40:34;11.00;99.90
18456;DHT22;9357;49.900;8.208;2023-04-24T06:42:07;11.00;99.90
18456;DHT22;9357;49.900;8.208;2023-04-24T06:43:40;11.00;99.90
18456;DHT22;9357;49.900;8.208;2023-04-24T06:45:13;11.00;99.90
18456;DHT22;9357;49.900;8.208;2023-04-24T06:46:46;11.00;99.90
18456;DHT22;9357;49.900;8.208;2023-04-24T06:48:20;11.00;99.90
18456;DHT22;9357;49.900;8.208;2023-04-24T06:49:53;11.00;99.90
18456;DHT22;9357;49.900;8.208;2023-04-24T06:51:26;11.00;99.90
18456;DHT22;9357;49.900;8.208;2023-04-24T06:52:59;11.00;99.90
18456;DHT22;9357;49.900;8.208;2023-04-24T06:54:32;11.00;99.90
18456;DHT22;9357;49.900;8.208;2023-04-24T06:56:05;11.00;99.90
18456;DHT22;9357;49.900;8.208;2023-04-24T06:57:38;11.10;99.90
18456;DHT22;9357;49.900;8.208;2023-04-24T06:59:11;11.00;99.90
18456;DHT22;9357;49.900;8.208;2023-04-24T07:00:43;11.10;99.90
18456;DHT22;9357;49.900;8.208;2023-04-24T07:02:17;11.10;99.90
18456;DHT22;9357;49.900;8.208;2023-04-24T07:03:51;11.20;99.90
18456;DHT22;9357;49.900;8.208;2023-04-24T07:05:24;11.30;99.90
18456;DHT22;9357;49.900;8.208;2023-04-24T07:06:56;11.30;99.90
18456;DHT22;9357;49.900;8.208;2023-04-24T07:08:30;11.40;99.90
18456;DHT22;9357;49.900;8.208;2023-04-24T07:10:04;11.50;99.90
18456;DHT22;9357;49.900;8.208;2023-04-24T07:11:36;11.50;99.90
18456;DHT22;9357;49.900;8.208;2023-04-24T07:13:11;11.70;99.90
18456;DHT22;9357;49.900;8.208;2023-04-24T07:14:43;11.80;99.90
18456;DHT22;9357;49.900;8.208;2023-04-24T07:16:16;12.00;99.90
18456;DHT22;9357;49.900;8.208;2023-04-24T07:17:49;12.20;99.90
18456;DHT22;9357;49.900;8.208;2023-04-24T07:19:23;12.40;99.90
18456;DHT22;9357;49.900;8.208;2023-04-24T07:20:56;12.60;99.90
18456;DHT22;9357;49.900;8.208;2023-04-24T07:22:29;12.80;99.90
18456;DHT22;9357;49.900;8.208;2023-04-24T07:24:02;13.10;99.90
18456;DHT22;9357;49.900;8.208;2023-04-24T07:25:34;13.30;99.90
18456;DHT22;9357;49.900;8.208;2023-04-24T07:27:07;13.60;99.90
18456;DHT22;9357;49.900;8.208;2023-04-24T07:28:40;13.90;99.90
18456;DHT22;9357;49.900;8.208;2023-04-24T07:30:13;14.10;99.90
18456;DHT22;9357;49.900;8.208;2023-04-24T07:31:46;14.30;99.90
18456;DHT22;9357;49.900;8.208;2023-04-24T07:33:18;14.40;99.90
18456;DHT22;9357;49.900;8.208;2023-04-24T07:34:53;14.60;99.90
18456;DHT22;9357;49.900;8.208;2023-04-24T07:36:25;14.80;99.90
18456;DHT22;9357;49.900;8.208;2023-04-24T07:37:59;15.00;99.90
18456;DHT22;9357;49.900;8.208;2023-04-24T07:39:32;15.10;99.90
18456;DHT22;9357;49.900;8.208;2023-04-24T07:41:05;15.10;99.90
18456;DHT22;9357;49.900;8.208;2023-04-24T07:42:37;15.00;99.90
18456;DHT22;9357;49.900;8.208;2023-04-24T07:44:10;15.10;99.90
18456;DHT22;9357;49.900;8.208;2023-04-24T07:45:43;15.20;99.90
18456;DHT22;9357;49.900;8.208;2023-04-24T07:47:16;15.30;99.90
18456;DHT22;9357;49.900;8.208;2023-04-24T07:48:49;15.30;99.90
18456;DHT22;9357;49.900;8.208;2023-04-24T07:50:41;15.40;99.90
18456;DHT22;9357;49.900;8.208;2023-04-24T07:52:14;15.30;99.90
18456;DHT22;9357;49.900;8.208;2023-04-24T07:53:46;15.20;99.90
18456;DHT22;9357;49.900;8.208;2023-04-24T07:55:19;15.30;99.90
18456;DHT22;9357;49.900;8.208;2023-04-24T07:56:56;15.50;99.90
18456;DHT22;9357;49.900;8.208;2023-04-24T07:58:29;15.70;99.90
18456;DHT22;9357;49.900;8.208;2023-04-24T08:00:03;15.60;99.90
18456;DHT22;9357;49.900;8.208;2023-04-24T08:01:36;15.70;99.90
18456;DHT22;9357;49.900;8.208;2023-04-24T08:03:08;15.90;99.90
18456;DHT22;9357;49.900;8.208;2023-04-24T08:04:41;16.20;99.90
18456;DHT22;9357;49.900;8.208;2023-04-24T08:06:16;16.40;99.90
18456;DHT22;9357;49.900;8.208;2023-04-24T08:07:48;16.60;99.90
18456;DHT22;9357;49.900;8.208;2023-04-24T08:09:21;16.80;99.90
18456;DHT22;9357;49.900;8.208;2023-04-24T08:10:57;17.00;99.90
18456;DHT22;9357;49.900;8.208;2023-04-24T08:12:29;17.10;99.90
18456;DHT22;9357;49.900;8.208;2023-04-24T08:14:02;17.20;99.90
18456;DHT22;9357;49.900;8.208;2023-04-24T08:15:35;17.40;99.90
18456;DHT22;9357;49.900;8.208;2023-04-24T08:17:07;17.50;99.90
18456;DHT22;9357;49.900;8.208;2023-04-24T08:18:40;17.60;99.90
18456;DHT22;9357;49.900;8.208;2023-04-24T08:20:13;17.80;99.90
18456;DHT22;9357;49.900;8.208;2023-04-24T08:21:47;17.70;99.90
18456;DHT22;9357;49.900;8.208;2023-04-24T08:23:20;17.70;99.90
18456;DHT22;9357;49.900;8.208;2023-04-24T08:24:53;17.70;99.90
18456;DHT22;9357;49.900;8.208;2023-04-24T08:26:27;17.80;99.90
18456;DHT22;9357;49.900;8.208;2023-04-24T08:28:01;17.80;99.90
18456;DHT22;9357;49.900;8.208;2023-04-24T08:29:34;18.00;99.90
18456;DHT22;9357;49.900;8.208;2023-04-24T08:31:06;18.00;99.90
18456;DHT22;9357;49.900;8.208;2023-04-24T08:32:39;18.00;99.90
18456;DHT22;9357;49.900;8.208;2023-04-24T08:34:13;17.80;99.90
18456;DHT22;9357;49.900;8.208;2023-04-24T08:35:45;17.70;99.90
18456;DHT22;9357;49.900;8.208;2023-04-24T08:37:20;17.50;99.90
18456;DHT22;9357;49.900;8.208;2023-04-24T08:38:53;17.40;99.90
18456;DHT22;9357;49.900;8.208;2023-04-24T08:40:27;17.20;99.90
18456;DHT22;9357;49.900;8.208;2023-04-24T08:42:02;17.00;99.90
18456;DHT22;9357;49.900;8.208;2023-04-24T08:43:39;16.80;99.90
18456;DHT22;9357;49.900;8.208;2023-04-24T08:45:13;16.50;99.90
18456;DHT22;9357;49.900;8.208;2023-04-24T08:46:47;16.30;99.90
18456;DHT22;9357;49.900;8.208;2023-04-24T08:48:22;15.90;99.90
18456;DHT22;9357;49.900;8.208;2023-04-24T08:50:03;15.70;99.90
18456;DHT22;9357;49.900;8.208;2023-04-24T08:51:37;15.50;99.90
18456;DHT22;9357;49.900;8.208;2023-04-24T08:53:11;15.40;99.90
18456;DHT22;9357;49.900;8.208;2023-04-24T08:54:45;15.20;99.90
18456;DHT22;9357;49.900;8.208;2023-04-24T08:56:18;15.10;99.90
18456;DHT22;9357;49.900;8.208;2023-04-24T08:57:52;15.00;99.90
18456;DHT22;9357;49.900;8.208;2023-04-24T08:59:26;14.90;99.90
18456;DHT22;9357;49.900;8.208;2023-04-24T09:00:59;14.80;99.90
18456;DHT22;9357;49.900;8.208;2023-04-24T09:02:32;14.80;99.90
18456;DHT22;9357;49.900;8.208;2023-04-24T09:04:08;14.80;99.90
18456;DHT22;9357;49.900;8.208;2023-04-24T09:05:43;14.80;99.90
18456;DHT22;9357;49.900;8.208;2023-04-24T09:07:19;15.10;99.90
18456;DHT22;9357;49.900;8.208;2023-04-24T09:08:56;15.30;99.90
18456;DHT22;9357;49.900;8.208;2023-04-24T09:10:29;15.40;99.90
18456;DHT22;9357;49.900;8.208;2023-04-24T09:12:02;15.60;99.90
18456;DHT22;9357;49.900;8.208;2023-04-24T09:13:35;15.90;99.90
18456;DHT22;9357;49.900;8.208;2023-04-24T09:15:09;16.00;99.90
18456;DHT22;9357;49.900;8.208;2023-04-24T09:16:43;16.10;99.90
18456;DHT22;9357;49.900;8.208;2023-04-24T09:18:17;16.10;99.90
18456;DHT22;9357;49.900;8.208;2023-04-24T09:19:49;15.90;99.90
18456;DHT22;9357;49.900;8.208;2023-04-24T09:21:22;15.80;99.90
18456;DHT22;9357;49.900;8.208;2023-04-24T09:22:56;15.70;99.90
18456;DHT22;9357;49.900;8.208;2023-04-24T09:24:31;15.40;99.90
18456;DHT22;9357;49.900;8.208;2023-04-24T09:26:04;15.20;99.90
18456;DHT22;9357;49.900;8.208;2023-04-24T09:27:41;15.00;99.90
18456;DHT22;9357;49.900;8.208;2023-04-24T09:29:15;14.90;99.90
18456;DHT22;9357;49.900;8.208;2023-04-24T09:31:02;14.80;99.90
18456;DHT22;9357;49.900;8.208;2023-04-24T09:32:35;14.70;99.90
18456;DHT22;9357;49.900;8.208;2023-04-24T09:34:07;14.70;99.90
18456;DHT22;9357;49.900;8.208;2023-04-24T09:35:41;14.70;99.90
18456;DHT22;9357;49.900;8.208;2023-04-24T09:37:27;14.70;99.90
18456;DHT22;9357;49.900;8.208;2023-04-24T09:39:01;14.80;99.90
18456;DHT22;9357;49.900;8.208;2023-04-24T09:40:37;14.80;99.90
18456;DHT22;9357;49.900;8.208;2023-04-24T09:42:12;14.80;99.90
18456;DHT22;9357;49.900;8.208;2023-04-24T09:43:45;14.90;99.90
18456;DHT22;9357;49.900;8.208;2023-04-24T09:45:17;14.90;99.90
18456;DHT22;9357;49.900;8.208;2023-04-24T09:46:51;14.90;99.90
18456;DHT22;9357;49.900;8.208;2023-04-24T09:48:31;14.90;99.90
18456;DHT22;9357;49.900;8.208;2023-04-24T09:50:12;14.80;99.90
18456;DHT22;9357;49.900;8.208;2023-04-24T09:51:45;14.70;99.90
18456;DHT22;9357;49.900;8.208;2023-04-24T09:53:24;14.70;99.90
18456;DHT22;9357;49.900;8.208;2023-04-24T09:54:56;14.60;99.90
18456;DHT22;9357;49.900;8.208;2023-04-24T09:56:33;14.50;99.90
18456;DHT22;9357;49.900;8.208;2023-04-24T09:58:08;14.40;99.90
18456;DHT22;9357;49.900;8.208;2023-04-24T09:59:42;14.20;99.90